Terminal Aerodrome Forecast
Issued by NWS Mt. Holly, NJ

Home | Current Version | Previous Version | Text Only | Print | Product List | Glossary On
Versions: 1 2 3 4 5 6 7 8 9 10 11 12 13 14 15 16 17 18 19
000
FTUS41 KPHI 181727
TAFABE
TAF
KABE 181727Z 1818/1918 20007KT P6SM OVC090
      TEMPO 1818/1822 5SM SHRA OVC030
     FM190000 19008G16KT P6SM OVC035
     FM190200 18011G21KT P6SM VCSH OVC030 WS020/21040KT
     FM190500 21014G26KT 4SM SHRA SCT008 OVC015 WS020/21045KT
     FM191000 22014G30KT P6SM VCSH OVC025
     FM191200 28019G39KT P6SM BKN035=

USA.gov is the U.S. government's official web portal to all federal, state and local government web resources and services.